AirNav   Everest Fuels
 
 1499 users online  

SN36 Wamsley Field Airport
Conway Springs, Kansas, USA

GOING TO CONWAY SPRINGS?


FAA INFORMATION EFFECTIVE 15 JULY 2021

Location

FAA Identifier: SN36
Lat/Long: 37-25-35.0690N 097-38-16.1790W
37-25.584483N 097-38.269650W
37.4264081,-97.6378275
(estimated)
Elevation: 1335 ft. / 407 m (estimated)
Variation: 07E (1985)
From city: 3 miles N of CONWAY SPRINGS, KS
Time zone: UTC -5 (UTC -6 during Standard Time)
Zip code: 67031

Airport Operations

Airport use: Private use. Permission required prior to landing
Activation date: 11/1970
Control tower: no
ARTCC: KANSAS CITY CENTER
FSS: WICHITA FLIGHT SERVICE STATION
Attendance: UNATNDD
Wind indicator: yes
Segmented circle: no

Airport Communications

WX AWOS-3 at EGT (13 nm SE): 118.875 (620-326-2470)
WX ASOS at ICT (17 nm NE): PHONE 316-945-8022

Nearby radio navigation aids

VOR radial/distance  VOR name  Freq  Var
ICTr181/19.3WICHITA VORTAC113.8007E
HUTr154/37.0HUTCHINSON VOR/DME116.8004E

 
NDB name  Hdg/Dist  Freq  Var  ID
PICHE220/12.633204EIC .. -.-.

Airport Services

Airframe service: NONE
Powerplant service: NONE

Runway Information

Runway 17/35

Dimensions: 2400 x 80 ft. / 732 x 24 m
Surface: turf
Operational restrictions: 17/35
RUNWAY 17  RUNWAY 35
Traffic pattern: leftleft
Displaced threshold: 200 ft.no
Obstructions: 10 ft. trees, 400 ft. from runwaytrees

Airport Ownership and Management from official FAA records

Ownership: Privately-owned
Owner: WAMSLEY HOMESTEAD ESTATES
1170 DONALD LANE
CONWAY SPRINGS, KS 67031
Phone 620-456-2408
Manager: CHARLES W ELLIS
1170 DONALD LANE
CONWAY SPRINGS, KS 67031
Phone 620-456-2408

Airport Operational Statistics

Aircraft based on the field: 4
Single engine airplanes: 4
    

Additional Remarks

FOR CD CTC WICHITA APCH AT 316-350-1520.

Instrument Procedures

There are no published instrument procedures at SN36.

Some nearby airports with instrument procedures:

KEGT - Wellington Municipal Airport (13 nm SE)
KICT - Wichita Dwight D Eisenhower National Airport (17 nm NE)
KIAB - Mc Connell Air Force Base (21 nm NE)
8K2 - Harper Municipal Airport (21 nm SW)
KCEA - Cessna Aircraft Field Airport (23 nm NE)
 
Loc | Ops | Rwys | IFR | FBO | Links
Com | Nav | Svcs | Stats | Notes
Area around SN36 (Wamsley Field Airport)
 
Road maps at: MapQuest Bing Google
 
Aerial photo
No photo
 
Sectional chart

 
Airport distance calculator
Flying to Wamsley Field Airport? Find the distance to fly.

From to SN36

Sunrise and sunset
Times for 05-Aug-2021
 Local
(UTC-5)
 Zulu
(UTC)
Morning civil twilight06:1111:11
Sunrise06:3911:39
Sunset20:3401:34
Evening civil twilight21:0202:02

Current date and time
Zulu (UTC)  05-Aug-2021 14:36:58
Local (UTC-5)  05-Aug-2021 09:36:58
 
METAR
KICT 
17nm NE 
051353Z 19007KT 9SM FEW090 SCT110 BKN160 24/18 A3008 RMK AO2 SLP172 T02390178
KIAB 
21nm NE 
051356Z AUTO 23009KT 10SM FEW200 23/17 A3009 RMK AO2 SLP181 T02310166 $
KBEC 
26nm NE 
051415Z AUTO 19008KT 10SM CLR 24/16 A3008 RMK AO2 T02360164
KAAO 
28nm NE 
051354Z AUTO 21009KT 10SM CLR 24/16 A3008 RMK AO2 SLP174 T02440161
K3AU 
30nm NE 
051410Z AUTO 20006KT 10SM CLR 24/15 A3009 RMK AO2
K1K1 
33nm NE 
051415Z AUTO 22008KT 10SM CLR 24/17 A3009 RMK AO2 T02370167
KWLD 
33nm SE 
051354Z AUTO 18005KT 8SM FEW100 23/19 A3011 RMK AO2 SLP186 T02330194
TAF
KICT 
17nm NE 
051126Z 0512/0612 18005KT P6SM SCT030 BKN100 FM052000 18010KT P6SM FEW060 SCT200 FM060400 16009KT P6SM FEW250
NOTAMs
Click for the latest NOTAMs
NOTAMs are issued by the DoD/FAA and will open in a separate window not controlled by AirNav.

 

 
 

Would you like to see your business listed on this page?

 If your business provides an interesting product or service to pilots, flight crews, aircraft, or users of the Wamsley Field Airport, you should consider listing it here.  To start the listing process, click on the button below
 
Add a business
 

Other Pages about Wamsley Field Airport

Update a link
 
Copyright © AirNav, LLC. All rights reserved. Privacy Policy  Contact